Time;durP1;ratioP1;P1;durP2;ratioP2;P2;SDS_P1;SDS_P2;PMS_P1;PMS_P2;Temp;Humidity;BMP_temperature;BMP_pressure;BME280_temperature;BME280_humidity;BME280_pressure;Samples;Min_cycle;Max_cycle;Signal;HPM_P1;HPM_P2
2023/10/29 00:02:07;;;;;;;4.30;3.13;;;;;;;;;;5071381;28;20039;-72
2023/10/29 00:04:35;;;;;;;5.43;3.57;;;;;;;;;;5109944;28;20116;-72
2023/10/29 00:07:02;;;;;;;4.10;3.40;;;;;;;;;;5109134;28;20574;-72
2023/10/29 00:09:28;;;;;;;5.53;3.87;;;;;;;;;;5108569;28;20146;-71
2023/10/29 00:11:55;;;;;;;6.03;3.90;;;;;;;;;;5093630;28;20106;-72
2023/10/29 00:14:21;;;;;;;8.23;3.83;;;;;;;;;;5094321;28;20042;-71
2023/10/29 00:16:46;;;;;;;5.57;3.80;;;;;;;;;;5114350;28;20036;-71
2023/10/29 00:19:12;;;;;;;6.20;4.23;;;;;;;;;;5081153;28;20050;-72
2023/10/29 00:21:37;;;;;;;6.63;3.93;;;;;;;;;;5081292;28;20118;-71
2023/10/29 00:24:04;;;;;;;5.30;4.10;;;;;;;;;;5081666;28;20035;-71
2023/10/29 00:26:30;;;;;;;5.85;4.60;;;;;;;;;;5098612;28;20046;-71
2023/10/29 00:28:56;;;;;;;6.00;4.20;;;;;;;;;;5081122;28;20469;-71
2023/10/29 00:31:21;;;;;;;6.03;4.20;;;;;;;;;;5115087;28;20056;-71
2023/10/29 00:33:47;;;;;;;6.87;4.20;;;;;;;;;;5115238;28;20485;-71
2023/10/29 00:36:13;;;;;;;5.27;4.50;;;;;;;;;;5096808;28;20032;-71
2023/10/29 00:38:39;;;;;;;6.00;3.90;;;;;;;;;;5097833;28;20051;-71
2023/10/29 00:41:06;;;;;;;5.07;3.97;;;;;;;;;;5081328;28;20122;-71
2023/10/29 00:43:40;;;;;;;4.60;3.53;;;;;;;;;;5098347;28;20196;-71
2023/10/29 00:46:08;;;;;;;5.03;3.67;;;;;;;;;;5115041;28;20028;-72
2023/10/29 00:48:34;;;;;;;4.83;3.40;;;;;;;;;;5081066;28;20050;-71
2023/10/29 00:51:00;;;;;;;5.13;3.47;;;;;;;;;;5097622;28;20492;-71
2023/10/29 00:53:27;;;;;;;8.97;3.70;;;;;;;;;;5080821;28;20526;-73
2023/10/29 00:55:54;;;;;;;4.73;3.63;;;;;;;;;;5076209;28;20051;-71
2023/10/29 00:58:20;;;;;;;6.47;3.80;;;;;;;;;;5043208;28;20059;-71
2023/10/29 01:00:46;;;;;;;4.17;3.20;;;;;;;;;;5076106;28;20055;-71
2023/10/29 01:03:12;;;;;;;6.07;3.10;;;;;;;;;;5043105;28;20123;-71
2023/10/29 01:05:38;;;;;;;4.20;3.40;;;;;;;;;;5076115;28;20448;-71
2023/10/29 01:08:07;;;;;;;4.73;3.23;;;;;;;;;;5043156;28;20428;-71
2023/10/29 01:10:33;;;;;;;4.73;3.23;;;;;;;;;;5043108;28;20193;-71
2023/10/29 01:13:00;;;;;;;3.47;3.17;;;;;;;;;;5076024;28;20131;-71
2023/10/29 01:15:26;;;;;;;4.63;3.20;;;;;;;;;;5059352;28;20075;-71
2023/10/29 01:17:52;;;;;;;5.40;3.23;;;;;;;;;;5042714;28;20104;-70
2023/10/29 01:20:18;;;;;;;4.53;3.07;;;;;;;;;;5042359;28;20044;-70
2023/10/29 01:22:44;;;;;;;6.80;3.10;;;;;;;;;;5075786;28;20126;-69
2023/10/29 01:25:10;;;;;;;3.37;2.97;;;;;;;;;;5059206;28;20070;-70
2023/10/29 01:27:39;;;;;;;3.07;2.70;;;;;;;;;;5093388;28;20047;-70
2023/10/29 01:30:05;;;;;;;5.77;3.30;;;;;;;;;;5080370;28;20040;-70
2023/10/29 01:32:34;;;;;;;4.33;3.10;;;;;;;;;;5113715;28;20134;-71
2023/10/29 01:35:00;;;;;;;3.00;2.63;;;;;;;;;;5097131;28;20093;-70
2023/10/29 01:37:26;;;;;;;2.87;2.57;;;;;;;;;;5113925;28;20126;-70
2023/10/29 01:39:51;;;;;;;3.07;2.33;;;;;;;;;;5096674;28;20130;-70
2023/10/29 01:42:18;;;;;;;5.60;2.50;;;;;;;;;;5096294;28;20040;-70
2023/10/29 01:44:44;;;;;;;2.28;2.08;;;;;;;;;;5114628;28;20047;-70
2023/10/29 01:47:09;;;;;;;3.97;2.43;;;;;;;;;;5113585;28;20042;-70
2023/10/29 01:49:35;;;;;;;2.30;2.10;;;;;;;;;;5078950;28;20130;-70
2023/10/29 01:52:02;;;;;;;3.80;2.40;;;;;;;;;;5077492;28;20036;-70
2023/10/29 01:54:29;;;;;;;2.10;1.90;;;;;;;;;;5094499;28;20031;-71
2023/10/29 01:56:56;;;;;;;4.00;1.90;;;;;;;;;;5094293;28;20054;-71
2023/10/29 01:59:22;;;;;;;2.90;1.90;;;;;;;;;;5077370;28;20068;-71
2023/10/29 02:01:48;;;;;;;2.10;1.90;;;;;;;;;;5094431;28;20032;-71
2023/10/29 02:04:14;;;;;;;2.73;2.03;;;;;;;;;;5094158;28;20020;-71
2023/10/29 02:06:40;;;;;;;3.87;2.10;;;;;;;;;;5113385;28;20165;-71
2023/10/29 02:09:08;;;;;;;5.77;2.00;;;;;;;;;;5079699;28;20051;-71
2023/10/29 02:11:39;;;;;;;2.20;1.80;;;;;;;;;;5079342;28;20043;-71
2023/10/29 02:14:06;;;;;;;2.20;1.98;;;;;;;;;;5095610;28;20039;-71
2023/10/29 02:16:32;;;;;;;1.90;1.70;;;;;;;;;;5095912;28;20059;-71
2023/10/29 02:18:59;;;;;;;2.70;2.13;;;;;;;;;;5095317;28;20028;-71
2023/10/29 02:21:25;;;;;;;2.10;1.90;;;;;;;;;;5078488;28;20039;-70
2023/10/29 02:23:55;;;;;;;2.67;2.00;;;;;;;;;;5113027;28;20089;-70
2023/10/29 02:26:21;;;;;;;4.00;1.60;;;;;;;;;;5096116;28;20057;-70
2023/10/29 02:28:47;;;;;;;2.60;1.80;;;;;;;;;;5113003;28;20075;-69
2023/10/29 02:31:19;;;;;;;3.17;1.77;;;;;;;;;;5112992;28;20035;-69
2023/10/29 02:33:46;;;;;;;3.67;1.60;;;;;;;;;;5113749;28;20035;-69
2023/10/29 02:36:12;;;;;;;1.80;1.70;;;;;;;;;;5113651;28;20067;-69
2023/10/29 02:38:38;;;;;;;2.23;1.63;;;;;;;;;;5095662;28;20467;-69
2023/10/29 02:41:04;;;;;;;1.97;1.80;;;;;;;;;;5113604;28;20065;-69
2023/10/29 02:43:30;;;;;;;3.73;1.90;;;;;;;;;;5096611;28;20031;-72
2023/10/29 02:45:56;;;;;;;1.97;1.87;;;;;;;;;;5113180;28;20069;-71
2023/10/29 02:48:24;;;;;;;2.33;1.63;;;;;;;;;;5112969;28;20078;-71
2023/10/29 02:50:53;;;;;;;5.97;2.00;;;;;;;;;;5079153;28;20435;-72
2023/10/29 02:53:19;;;;;;;3.17;2.30;;;;;;;;;;5096865;28;20148;-71
2023/10/29 02:55:45;;;;;;;3.03;1.83;;;;;;;;;;5114517;28;20117;-71
2023/10/29 02:58:12;;;;;;;2.10;1.90;;;;;;;;;;5097439;28;20046;-71
2023/10/29 03:00:38;;;;;;;3.67;1.83;;;;;;;;;;5096242;28;20058;-70
2023/10/29 03:03:05;;;;;;;3.43;2.00;;;;;;;;;;5096068;28;20031;-71
2023/10/29 03:05:31;;;;;;;2.13;1.90;;;;;;;;;;5114520;28;20059;-71
2023/10/29 03:07:59;;;;;;;2.20;2.00;;;;;;;;;;5114050;28;20043;-71
2023/10/29 03:10:25;;;;;;;2.07;1.97;;;;;;;;;;5079852;28;20508;-72
2023/10/29 03:12:51;;;;;;;4.00;2.10;;;;;;;;;;5096362;28;20524;-71
2023/10/29 03:15:18;;;;;;;1.90;1.80;;;;;;;;;;5078725;28;20039;-71
2023/10/29 03:17:44;;;;;;;2.20;2.00;;;;;;;;;;5078655;28;20043;-72
2023/10/29 03:20:11;;;;;;;2.60;2.20;;;;;;;;;;5095562;28;20032;-72
2023/10/29 03:22:37;;;;;;;2.10;1.90;;;;;;;;;;5095836;28;20042;-71
2023/10/29 03:25:04;;;;;;;3.63;1.73;;;;;;;;;;5095726;28;20043;-71
2023/10/29 03:27:30;;;;;;;2.17;1.80;;;;;;;;;;5058300;28;20093;-71
2023/10/29 03:29:57;;;;;;;5.57;2.43;;;;;;;;;;5058220;28;20482;-71
2023/10/29 03:32:23;;;;;;;3.20;2.27;;;;;;;;;;5058216;28;20051;-71
2023/10/29 03:34:50;;;;;;;3.77;2.20;;;;;;;;;;5057477;28;20032;-71
2023/10/29 03:37:18;;;;;;;2.30;2.10;;;;;;;;;;5058159;28;20066;-71
2023/10/29 03:39:45;;;;;;;3.73;2.10;;;;;;;;;;5057985;28;20043;-71
2023/10/29 03:42:11;;;;;;;2.47;2.27;;;;;;;;;;5075164;28;20126;-71
2023/10/29 03:44:38;;;;;;;2.70;2.30;;;;;;;;;;5092196;28;20047;-72
2023/10/29 03:47:03;;;;;;;2.40;2.20;;;;;;;;;;5074766;28;20158;-71
2023/10/29 03:49:29;;;;;;;2.97;2.30;;;;;;;;;;5074427;28;20043;-71
2023/10/29 03:51:55;;;;;;;2.70;2.33;;;;;;;;;;5041208;28;20032;-69
2023/10/29 03:54:20;;;;;;;2.50;2.30;;;;;;;;;;5057005;28;20035;-70
2023/10/29 03:56:46;;;;;;;2.97;2.43;;;;;;;;;;5073715;28;20074;-69
2023/10/29 03:59:12;;;;;;;2.97;2.67;;;;;;;;;;5086527;28;20438;-69
2023/10/29 04:01:38;;;;;;;3.90;2.40;;;;;;;;;;5111189;28;20031;-71
2023/10/29 04:04:03;;;;;;;2.77;2.50;;;;;;;;;;5111376;28;20043;-71
2023/10/29 04:06:32;;;;;;;2.80;2.60;;;;;;;;;;5094456;28;20126;-71
2023/10/29 04:08:59;;;;;;;3.10;2.63;;;;;;;;;;5094323;28;20039;-71
2023/10/29 04:11:24;;;;;;;4.20;2.90;;;;;;;;;;5077410;28;20058;-70
2023/10/29 04:13:51;;;;;;;5.18;3.00;;;;;;;;;;5110821;28;20366;-69
2023/10/29 04:16:17;;;;;;;6.30;2.97;;;;;;;;;;5111384;28;20070;-70
2023/10/29 04:18:43;;;;;;;3.70;3.00;;;;;;;;;;5111369;28;20065;-70
2023/10/29 04:21:08;;;;;;;3.30;3.00;;;;;;;;;;5077314;28;20035;-73
2023/10/29 04:23:37;;;;;;;4.07;3.17;;;;;;;;;;5076893;28;20134;-71
2023/10/29 04:26:05;;;;;;;3.50;3.10;;;;;;;;;;5093738;28;20038;-71
2023/10/29 04:28:31;;;;;;;3.70;3.30;;;;;;;;;;5076883;28;20408;-70
2023/10/29 04:30:58;;;;;;;3.47;3.17;;;;;;;;;;5111386;28;20118;-70
2023/10/29 04:33:23;;;;;;;4.20;3.33;;;;;;;;;;5093891;28;20130;-70
2023/10/29 04:35:49;;;;;;;4.27;3.60;;;;;;;;;;5093883;28;20115;-70
2023/10/29 04:38:15;;;;;;;4.20;3.30;;;;;;;;;;5094171;28;20048;-70
2023/10/29 04:40:40;;;;;;;4.97;3.30;;;;;;;;;;5076889;28;20043;-70
2023/10/29 04:43:06;;;;;;;4.13;3.57;;;;;;;;;;5093791;28;20035;-69
2023/10/29 04:45:32;;;;;;;3.80;3.40;;;;;;;;;;5093647;28;20032;-69
2023/10/29 04:47:57;;;;;;;5.40;3.43;;;;;;;;;;5076610;28;20039;-70
2023/10/29 04:50:23;;;;;;;7.87;3.63;;;;;;;;;;5093305;28;20043;-70
2023/10/29 04:52:48;;;;;;;3.90;3.47;;;;;;;;;;5076701;28;20109;-69
2023/10/29 04:55:15;;;;;;;5.53;3.50;;;;;;;;;;5110895;28;20036;-71
2023/10/29 04:57:41;;;;;;;4.10;3.50;;;;;;;;;;5110558;28;20156;-70
2023/10/29 05:00:08;;;;;;;4.30;3.90;;;;;;;;;;5089685;28;20480;-70
2023/10/29 05:02:35;;;;;;;5.00;3.83;;;;;;;;;;5092322;28;20036;-72
2023/10/29 05:05:03;;;;;;;4.03;3.63;;;;;;;;;;5094442;28;20052;-72
2023/10/29 05:07:31;;;;;;;4.97;3.85;;;;;;;;;;5072478;28;20048;-71
2023/10/29 05:09:57;;;;;;;5.03;3.80;;;;;;;;;;5072536;28;20056;-73
2023/10/29 05:12:23;;;;;;;4.00;3.47;;;;;;;;;;5055681;28;20060;-74
2023/10/29 05:14:51;;;;;;;4.87;3.90;;;;;;;;;;5039375;28;20032;-72
2023/10/29 05:17:17;;;;;;;4.70;3.70;;;;;;;;;;5056561;28;20131;-73
2023/10/29 05:19:44;;;;;;;4.63;3.97;;;;;;;;;;5055631;28;20033;-73
2023/10/29 05:22:10;;;;;;;5.87;3.87;;;;;;;;;;5015812;28;20107;-73
2023/10/29 05:24:35;;;;;;;4.17;3.63;;;;;;;;;;5015962;28;20049;-70
2023/10/29 05:27:02;;;;;;;4.33;3.90;;;;;;;;;;4999309;28;20037;-73
2023/10/29 05:29:28;;;;;;;4.93;3.80;;;;;;;;;;5032105;28;20075;-74
2023/10/29 05:31:54;;;;;;;5.57;4.13;;;;;;;;;;5012477;28;20064;-73
2023/10/29 05:34:19;;;;;;;5.90;4.30;;;;;;;;;;4980411;28;20046;-74
2023/10/29 05:36:47;;;;;;;5.15;4.15;;;;;;;;;;4995777;28;20415;-75
2023/10/29 05:39:14;;;;;;;7.18;4.45;;;;;;;;;;4963381;28;20041;-70
2023/10/29 05:41:40;;;;;;;5.38;4.20;;;;;;;;;;4963770;28;20377;-71
2023/10/29 05:44:07;;;;;;;4.67;3.97;;;;;;;;;;4976801;28;20065;-72
2023/10/29 05:46:33;;;;;;;4.90;3.80;;;;;;;;;;4960339;28;20042;-73
2023/10/29 05:49:01;;;;;;;6.83;4.33;;;;;;;;;;4960527;28;20214;-71
2023/10/29 05:51:28;;;;;;;7.80;4.67;;;;;;;;;;4976975;28;20137;-73
2023/10/29 05:53:55;;;;;;;7.50;4.10;;;;;;;;;;4992436;28;20073;-73
2023/10/29 05:56:22;;;;;;;9.00;3.87;;;;;;;;;;5016057;28;20045;-72
2023/10/29 05:58:48;;;;;;;6.60;4.30;;;;;;;;;;4999500;28;20116;-73
2023/10/29 06:01:18;;;;;;;6.27;4.37;;;;;;;;;;4982817;28;20230;-73
2023/10/29 06:03:45;;;;;;;6.13;4.22;;;;;;;;;;5016547;28;20079;-75
2023/10/29 06:06:11;;;;;;;6.37;4.30;;;;;;;;;;5038013;28;20479;-74
2023/10/29 06:08:38;;;;;;;5.40;4.23;;;;;;;;;;5011666;28;20432;-75
2023/10/29 06:11:04;;;;;;;6.23;4.33;;;;;;;;;;4959854;28;20050;-75
2023/10/29 06:13:30;;;;;;;7.73;4.23;;;;;;;;;;4937377;29;20069;-75
2023/10/29 06:15:59;;;;;;;6.70;4.40;;;;;;;;;;4937494;29;20133;-75
2023/10/29 06:18:25;;;;;;;6.17;4.50;;;;;;;;;;4953462;29;20043;-75
2023/10/29 06:20:54;;;;;;;6.83;4.30;;;;;;;;;;4953496;29;20577;-74
2023/10/29 06:23:20;;;;;;;8.97;5.77;;;;;;;;;;4937445;29;20105;-75
2023/10/29 06:25:47;;;;;;;8.33;4.30;;;;;;;;;;4937480;29;20059;-75
2023/10/29 06:28:13;;;;;;;5.73;4.30;;;;;;;;;;4960534;28;20551;-73
2023/10/29 06:30:40;;;;;;;6.07;4.60;;;;;;;;;;4975704;28;20046;-63
2023/10/29 06:33:06;;;;;;;5.40;4.30;;;;;;;;;;4975494;28;20538;-62
2023/10/29 06:35:31;;;;;;;7.10;4.80;;;;;;;;;;4991827;28;20053;-63
2023/10/29 06:37:57;;;;;;;5.80;4.60;;;;;;;;;;4991598;28;20037;-61
2023/10/29 06:40:24;;;;;;;6.40;4.50;;;;;;;;;;5024493;28;20045;-63
2023/10/29 06:42:50;;;;;;;7.00;5.00;;;;;;;;;;5048288;28;20044;-62
2023/10/29 06:45:16;;;;;;;6.90;4.83;;;;;;;;;;5073087;28;20095;-62
2023/10/29 06:47:42;;;;;;;6.40;5.00;;;;;;;;;;5080261;28;20204;-62
2023/10/29 06:50:07;;;;;;;7.43;5.30;;;;;;;;;;5097659;28;20051;-63
2023/10/29 06:52:33;;;;;;;8.20;5.77;;;;;;;;;;5090490;28;20054;-62
2023/10/29 06:54:59;;;;;;;6.77;5.07;;;;;;;;;;5102710;28;20062;-63
2023/10/29 06:57:24;;;;;;;5.97;4.63;;;;;;;;;;5111905;28;20035;-63
2023/10/29 06:59:50;;;;;;;6.20;4.67;;;;;;;;;;5112273;28;20035;-63
2023/10/29 07:02:16;;;;;;;7.27;4.50;;;;;;;;;;5104639;28;20028;-62
2023/10/29 07:04:42;;;;;;;6.90;4.43;;;;;;;;;;5101700;28;20040;-63
2023/10/29 07:07:07;;;;;;;6.80;4.80;;;;;;;;;;5094579;28;20050;-61
2023/10/29 07:09:34;;;;;;;5.38;4.28;;;;;;;;;;5111924;28;20560;-64
2023/10/29 07:12:00;;;;;;;5.80;4.35;;;;;;;;;;5110735;28;20043;-60
2023/10/29 07:14:26;;;;;;;6.87;5.07;;;;;;;;;;5110663;28;20039;-64
2023/10/29 07:16:57;;;;;;;6.27;4.70;;;;;;;;;;5112043;28;20042;-60
2023/10/29 07:19:22;;;;;;;;;;;;;;;;;;5094530;28;20484;-63
2023/10/29 07:21:54;;;;;;;;;;;;;;;;;;5094650;28;19923;-63
2023/10/29 07:24:19;;;;;;;7.37;4.70;;;;;;;;;;5110740;28;19911;-64
2023/10/29 07:26:45;;;;;;;6.00;4.83;;;;;;;;;;5111329;28;20472;-65
2023/10/29 07:29:11;;;;;;;7.60;4.53;;;;;;;;;;5111172;28;20096;-67
2023/10/29 07:31:37;;;;;;;7.93;5.13;;;;;;;;;;5107439;28;20444;-63
2023/10/29 07:34:03;;;;;;;7.90;5.07;;;;;;;;;;5101244;28;20485;-64
2023/10/29 07:36:29;;;;;;;8.53;5.37;;;;;;;;;;5090060;28;20043;-63
2023/10/29 07:38:55;;;;;;;7.40;4.43;;;;;;;;;;5091364;28;20036;-63
2023/10/29 07:41:21;;;;;;;6.95;4.72;;;;;;;;;;5091356;28;20131;-62
2023/10/29 07:43:47;;;;;;;8.60;4.72;;;;;;;;;;5073395;28;20032;-65
2023/10/29 07:46:14;;;;;;;6.20;5.00;;;;;;;;;;5035205;28;20040;-63
2023/10/29 07:48:44;;;;;;;7.57;5.13;;;;;;;;;;5052935;28;20059;-64
2023/10/29 07:51:11;;;;;;;6.82;4.80;;;;;;;;;;5070175;28;20036;-64
2023/10/29 07:53:37;;;;;;;6.13;4.13;;;;;;;;;;5078967;28;20507;-63
2023/10/29 07:56:08;;;;;;;6.97;5.03;;;;;;;;;;5077451;28;20052;-64
2023/10/29 07:58:33;;;;;;;9.25;6.07;;;;;;;;;;5060127;28;20028;-64
2023/10/29 08:01:00;;;;;;;9.38;6.18;;;;;;;;;;5076427;28;20039;-65
2023/10/29 08:03:26;;;;;;;8.75;4.53;;;;;;;;;;5076655;28;20437;-63
2023/10/29 08:05:52;;;;;;;6.93;4.65;;;;;;;;;;5077906;28;20055;-63
2023/10/29 08:08:18;;;;;;;6.72;4.72;;;;;;;;;;5050950;28;20574;-62
2023/10/29 08:10:44;;;;;;;7.13;4.60;;;;;;;;;;5053455;28;20229;-65
2023/10/29 08:13:10;;;;;;;7.22;4.43;;;;;;;;;;5032816;28;20024;-65
2023/10/29 08:15:39;;;;;;;8.10;4.90;;;;;;;;;;5078646;28;20588;-64
2023/10/29 08:18:04;;;;;;;9.67;5.13;;;;;;;;;;5092941;28;20416;-65
2023/10/29 08:20:31;;;;;;;9.13;5.25;;;;;;;;;;5082679;28;20473;-65
2023/10/29 08:22:56;;;;;;;8.18;5.50;;;;;;;;;;5098513;28;20035;-66
2023/10/29 08:25:22;;;;;;;9.15;5.70;;;;;;;;;;5098326;28;20382;-64
2023/10/29 08:27:48;;;;;;;12.25;6.40;;;;;;;;;;5098857;28;20035;-65
2023/10/29 08:30:13;;;;;;;11.82;7.05;;;;;;;;;;5072952;28;20092;-64
2023/10/29 08:32:39;;;;;;;8.77;6.55;;;;;;;;;;5083615;28;20024;-66
2023/10/29 08:35:06;;;;;;;10.32;7.03;;;;;;;;;;5093726;28;20054;-64
2023/10/29 08:37:34;;;;;;;12.67;6.90;;;;;;;;;;5102093;28;20168;-64
2023/10/29 08:39:59;;;;;;;9.40;6.22;;;;;;;;;;5103840;28;20058;-64
2023/10/29 08:42:32;;;;;;;10.18;6.40;;;;;;;;;;5102380;28;20032;-65
2023/10/29 08:44:58;;;;;;;12.40;8.07;;;;;;;;;;5079339;28;20076;-64
2023/10/29 08:47:25;;;;;;;16.55;9.52;;;;;;;;;;5094464;28;20040;-64
2023/10/29 08:49:50;;;;;;;12.63;7.10;;;;;;;;;;5096521;28;20351;-64
2023/10/29 08:52:17;;;;;;;11.85;7.50;;;;;;;;;;5078998;28;20036;-65
2023/10/29 08:54:47;;;;;;;9.48;6.50;;;;;;;;;;5102478;28;20040;-64
2023/10/29 08:57:13;;;;;;;12.40;6.55;;;;;;;;;;5102389;28;20031;-67
2023/10/29 08:59:39;;;;;;;10.40;7.07;;;;;;;;;;5086739;28;20028;-67
2023/10/29 09:02:07;;;;;;;9.73;6.50;;;;;;;;;;5057042;28;20036;-68
2023/10/29 09:04:36;;;;;;;12.07;6.47;;;;;;;;;;5086651;28;20050;-67
2023/10/29 09:07:02;;;;;;;11.32;6.10;;;;;;;;;;5103419;28;20028;-66
2023/10/29 09:09:28;;;;;;;10.03;6.43;;;;;;;;;;5102263;28;20047;-66
2023/10/29 09:11:54;;;;;;;11.48;6.78;;;;;;;;;;5101338;28;20031;-66
2023/10/29 09:14:20;;;;;;;10.98;6.35;;;;;;;;;;5103543;28;20046;-68
2023/10/29 09:16:48;;;;;;;9.57;6.77;;;;;;;;;;5102182;28;20036;-66
2023/10/29 09:19:13;;;;;;;19.57;8.93;;;;;;;;;;5101806;28;20070;-67
2023/10/29 09:21:39;;;;;;;10.32;6.45;;;;;;;;;;5094779;28;20434;-66
2023/10/29 09:24:07;;;;;;;12.17;6.50;;;;;;;;;;5112988;28;20067;-67
2023/10/29 09:26:33;;;;;;;12.33;6.77;;;;;;;;;;5107591;28;20024;-65
2023/10/29 09:29:00;;;;;;;11.07;6.60;;;;;;;;;;5102467;28;20039;-65
2023/10/29 09:31:26;;;;;;;9.60;5.75;;;;;;;;;;5103546;28;20040;-65
2023/10/29 09:33:52;;;;;;;15.20;7.78;;;;;;;;;;5103136;28;20381;-65
2023/10/29 09:36:18;;;;;;;9.82;6.78;;;;;;;;;;5096767;28;20036;-65
2023/10/29 09:38:43;;;;;;;10.17;6.57;;;;;;;;;;5094998;28;20075;-65
2023/10/29 09:41:09;;;;;;;10.57;6.75;;;;;;;;;;5097298;28;20038;-66
2023/10/29 09:43:41;;;;;;;9.20;6.88;;;;;;;;;;5093526;28;20039;-66
2023/10/29 09:46:07;;;;;;;11.27;7.28;;;;;;;;;;5093507;28;20028;-66
2023/10/29 09:48:33;;;;;;;11.50;7.05;;;;;;;;;;5092043;28;20048;-65
2023/10/29 09:50:59;;;;;;;12.02;7.03;;;;;;;;;;5092810;28;20459;-68
2023/10/29 09:53:26;;;;;;;11.50;7.53;;;;;;;;;;5102679;28;20044;-65
2023/10/29 09:55:53;;;;;;;10.90;7.47;;;;;;;;;;5112358;28;20032;-65
2023/10/29 09:58:22;;;;;;;11.98;7.57;;;;;;;;;;5095951;28;20031;-65
2023/10/29 10:00:49;;;;;;;11.55;7.28;;;;;;;;;;5096206;28;20035;-65
2023/10/29 10:03:15;;;;;;;10.43;7.00;;;;;;;;;;5087344;28;20261;-65
2023/10/29 10:05:42;;;;;;;11.83;7.50;;;;;;;;;;5091687;28;20335;-66
2023/10/29 10:08:09;;;;;;;11.43;7.85;;;;;;;;;;5093764;28;20028;-66
2023/10/29 10:10:42;;;;;;;13.38;7.85;;;;;;;;;;5099975;28;20160;-66
2023/10/29 10:13:08;;;;;;;11.23;7.15;;;;;;;;;;5091636;28;20036;-65
2023/10/29 10:15:36;;;;;;;11.07;7.15;;;;;;;;;;5048872;28;20043;-65
2023/10/29 10:18:06;;;;;;;12.82;8.13;;;;;;;;;;5086044;28;20034;-64
2023/10/29 10:20:33;;;;;;;17.43;9.40;;;;;;;;;;5102179;28;20031;-66
2023/10/29 10:23:11;;;;;;;11.27;7.57;;;;;;;;;;5073503;28;20278;-65
2023/10/29 10:25:38;;;;;;;10.68;6.72;;;;;;;;;;5100658;28;20109;-65
2023/10/29 10:28:04;;;;;;;12.65;7.20;;;;;;;;;;5076115;28;20023;-65
2023/10/29 10:30:30;;;;;;;9.43;6.63;;;;;;;;;;5073590;28;20497;-66
2023/10/29 10:33:13;;;;;;;8.68;6.80;;;;;;;;;;5074402;28;20090;-65
2023/10/29 10:35:39;;;;;;;10.82;6.20;;;;;;;;;;5099959;28;20046;-65
2023/10/29 10:38:05;;;;;;;10.15;6.47;;;;;;;;;;5111480;28;20035;-66
2023/10/29 10:40:31;;;;;;;7.32;5.88;;;;;;;;;;5104632;28;20028;-65
2023/10/29 10:42:58;;;;;;;8.95;6.22;;;;;;;;;;5101573;28;20361;-64
2023/10/29 10:45:26;;;;;;;9.25;6.18;;;;;;;;;;5101980;28;20042;-66
2023/10/29 10:47:54;;;;;;;9.18;5.50;;;;;;;;;;5111910;28;20039;-65
2023/10/29 10:50:21;;;;;;;7.55;5.80;;;;;;;;;;5111709;28;20040;-65
2023/10/29 10:52:49;;;;;;;8.60;5.93;;;;;;;;;;5096767;28;20036;-67
2023/10/29 10:55:15;;;;;;;8.05;5.45;;;;;;;;;;5099614;28;20036;-65
2023/10/29 10:57:44;;;;;;;11.15;6.32;;;;;;;;;;5082181;28;20123;-66
2023/10/29 11:00:13;;;;;;;8.80;5.63;;;;;;;;;;5086548;28;20028;-67
2023/10/29 11:02:39;;;;;;;8.27;5.80;;;;;;;;;;5095504;28;20039;-66
2023/10/29 11:05:07;;;;;;;7.97;5.65;;;;;;;;;;5091709;28;20099;-66
2023/10/29 11:07:34;;;;;;;8.07;5.55;;;;;;;;;;5090048;28;20031;-65
2023/10/29 11:09:59;;;;;;;9.75;6.07;;;;;;;;;;5090268;28;20048;-66
2023/10/29 11:12:26;;;;;;;7.63;5.05;;;;;;;;;;5072527;28;20433;-65
2023/10/29 11:15:15;;;;;;;6.85;5.30;;;;;;;;;;5100031;28;20042;-65
2023/10/29 11:18:00;;;;;;;8.80;5.40;;;;;;;;;;5089688;28;20513;-66
2023/10/29 11:20:36;;;;;;;7.90;5.50;;;;;;;;;;5095364;28;20394;-67
2023/10/29 11:23:07;;;;;;;7.13;5.30;;;;;;;;;;5091319;28;20128;-68
2023/10/29 11:25:33;;;;;;;7.57;5.30;;;;;;;;;;5073118;28;20040;-67
2023/10/29 11:27:59;;;;;;;6.63;5.13;;;;;;;;;;5090428;28;20563;-66
2023/10/29 11:30:28;;;;;;;5.78;4.75;;;;;;;;;;5073952;28;20173;-67
2023/10/29 11:33:06;;;;;;;6.80;4.85;;;;;;;;;;5073541;28;20083;-67
2023/10/29 11:35:32;;;;;;;7.93;5.20;;;;;;;;;;5090787;28;20618;-66
2023/10/29 11:38:00;;;;;;;9.82;5.28;;;;;;;;;;5090143;28;20926;-66
2023/10/29 11:40:25;;;;;;;6.57;4.78;;;;;;;;;;5090317;28;20040;-66
2023/10/29 11:42:54;;;;;;;8.27;5.00;;;;;;;;;;5035212;28;20051;-66
2023/10/29 11:45:29;;;;;;;9.95;5.57;;;;;;;;;;5035246;28;20206;-66
2023/10/29 11:48:25;;;;;;;8.65;6.00;;;;;;;;;;5052238;28;20048;-67
2023/10/29 11:51:05;;;;;;;8.10;5.97;;;;;;;;;;5032814;28;20484;-65
2023/10/29 11:53:31;;;;;;;8.57;6.72;;;;;;;;;;5051940;28;20074;-65
2023/10/29 11:56:04;;;;;;;11.45;6.25;;;;;;;;;;5028915;28;20041;-65
2023/10/29 11:58:31;;;;;;;8.85;5.93;;;;;;;;;;5028667;28;20049;-66
2023/10/29 12:00:57;;;;;;;9.57;6.30;;;;;;;;;;4996265;28;20045;-66
2023/10/29 12:03:23;;;;;;;9.05;6.43;;;;;;;;;;5028717;28;20041;-68
2023/10/29 12:05:49;;;;;;;9.10;6.55;;;;;;;;;;5016614;28;20064;-66
2023/10/29 12:08:16;;;;;;;7.80;5.85;;;;;;;;;;5022915;28;20127;-66
2023/10/29 12:10:47;;;;;;;8.80;5.93;;;;;;;;;;5023292;28;20461;-67
2023/10/29 12:13:16;;;;;;;10.63;6.55;;;;;;;;;;5021307;28;20067;-67
2023/10/29 12:15:50;;;;;;;8.63;6.10;;;;;;;;;;5043713;28;20037;-67
2023/10/29 12:18:21;;;;;;;8.80;6.10;;;;;;;;;;5010182;28;20041;-67
2023/10/29 12:20:48;;;;;;;12.75;7.00;;;;;;;;;;5036112;28;20283;-67
2023/10/29 12:23:15;;;;;;;9.52;6.32;;;;;;;;;;5023866;28;20446;-65
2023/10/29 12:25:41;;;;;;;10.20;5.85;;;;;;;;;;5001842;28;20073;-67
2023/10/29 12:28:10;;;;;;;10.93;5.87;;;;;;;;;;5021736;28;20076;-67
2023/10/29 12:30:40;;;;;;;8.82;6.25;;;;;;;;;;5054771;28;20094;-67
2023/10/29 12:33:22;;;;;;;8.48;5.82;;;;;;;;;;5021475;28;20067;-67
2023/10/29 12:35:50;;;;;;;7.75;5.47;;;;;;;;;;5021493;28;20165;-66
2023/10/29 12:38:17;;;;;;;9.23;5.63;;;;;;;;;;5038077;28;20510;-66
2023/10/29 12:41:01;;;;;;;7.40;4.90;;;;;;;;;;5054595;28;20045;-67
2023/10/29 12:43:51;;;;;;;8.55;5.05;;;;;;;;;;5035627;28;20111;-66
2023/10/29 12:46:19;;;;;;;6.70;5.17;;;;;;;;;;5065914;28;20741;-66
2023/10/29 12:48:47;;;;;;;;;;;;;;;;;;5107043;28;20050;-67
2023/10/29 12:51:21;;;;;;;7.93;5.43;;;;;;;;;;5107586;28;20322;-67
2023/10/29 12:53:48;;;;;;;9.10;5.83;;;;;;;;;;5106917;27;20031;-66
2023/10/29 12:56:14;;;;;;;8.20;5.67;;;;;;;;;;5088299;28;20363;-67
2023/10/29 12:58:41;;;;;;;8.00;5.00;;;;;;;;;;5105789;28;20343;-66
2023/10/29 13:01:06;;;;;;;7.27;4.80;;;;;;;;;;5101396;28;20494;-66
2023/10/29 13:03:32;;;;;;;6.13;4.63;;;;;;;;;;5089731;28;20069;-67
2023/10/29 13:05:58;;;;;;;5.75;4.40;;;;;;;;;;5106810;28;20051;-65
2023/10/29 13:08:29;;;;;;;7.23;4.80;;;;;;;;;;5107967;28;20474;-67
2023/10/29 13:10:57;;;;;;;6.50;4.40;;;;;;;;;;5053897;28;20078;-67
2023/10/29 13:13:26;;;;;;;5.77;4.20;;;;;;;;;;5105627;28;20131;-67
2023/10/29 13:16:01;;;;;;;6.03;4.60;;;;;;;;;;5102896;28;20036;-66
2023/10/29 13:18:27;;;;;;;5.45;4.07;;;;;;;;;;5088506;28;20092;-65
2023/10/29 13:20:59;;;;;;;11.73;6.03;;;;;;;;;;5086831;28;20024;-67
2023/10/29 13:23:25;;;;;;;6.97;4.23;;;;;;;;;;5099980;28;20066;-67
2023/10/29 13:25:55;;;;;;;7.30;4.77;;;;;;;;;;5066559;28;20028;-67
2023/10/29 13:28:24;;;;;;;7.87;4.40;;;;;;;;;;5034107;28;20072;-67
2023/10/29 13:30:53;;;;;;;6.38;4.63;;;;;;;;;;5099988;28;20067;-66
2023/10/29 13:33:20;;;;;;;7.93;5.00;;;;;;;;;;5071505;28;20088;-67
2023/10/29 13:35:46;;;;;;;7.38;5.15;;;;;;;;;;5086099;28;20283;-66
2023/10/29 13:38:12;;;;;;;6.63;4.90;;;;;;;;;;5101994;28;20040;-66
2023/10/29 13:40:38;;;;;;;9.57;5.77;;;;;;;;;;5099017;28;20392;-67
2023/10/29 13:43:04;;;;;;;9.55;5.70;;;;;;;;;;5085394;28;20027;-66
2023/10/29 13:45:31;;;;;;;8.30;5.73;;;;;;;;;;5077371;28;20027;-67
2023/10/29 13:47:57;;;;;;;11.77;6.30;;;;;;;;;;5087935;28;20110;-67
2023/10/29 13:50:23;;;;;;;8.40;6.20;;;;;;;;;;5090879;28;20046;-65
2023/10/29 13:52:48;;;;;;;10.00;6.32;;;;;;;;;;5100816;28;20032;-65
2023/10/29 13:55:14;;;;;;;11.40;7.13;;;;;;;;;;5094887;28;20028;-67
2023/10/29 13:57:40;;;;;;;9.27;6.32;;;;;;;;;;5086141;28;20035;-67
2023/10/29 14:00:08;;;;;;;11.25;6.78;;;;;;;;;;5073998;28;20067;-68
2023/10/29 14:02:38;;;;;;;11.77;6.55;;;;;;;;;;5092651;28;20362;-66
2023/10/29 14:05:04;;;;;;;15.23;6.07;;;;;;;;;;5092706;28;20060;-67
2023/10/29 14:07:31;;;;;;;9.60;6.05;;;;;;;;;;5058054;28;20108;-67
2023/10/29 14:09:58;;;;;;;11.25;6.28;;;;;;;;;;5091903;28;20104;-65
2023/10/29 14:12:26;;;;;;;9.60;6.30;;;;;;;;;;5091378;28;20051;-67
2023/10/29 14:14:51;;;;;;;8.18;5.88;;;;;;;;;;5092670;28;20032;-68
2023/10/29 14:17:17;;;;;;;13.43;6.20;;;;;;;;;;5091677;28;20552;-66
2023/10/29 14:19:44;;;;;;;8.87;5.87;;;;;;;;;;5074821;28;20040;-68
2023/10/29 14:22:09;;;;;;;8.98;5.63;;;;;;;;;;5091781;28;20042;-67
2023/10/29 14:24:35;;;;;;;9.13;5.68;;;;;;;;;;5092147;28;20050;-66
2023/10/29 14:27:01;;;;;;;8.20;5.80;;;;;;;;;;5091468;28;20128;-67
2023/10/29 14:29:26;;;;;;;10.45;5.88;;;;;;;;;;5091706;28;20154;-67
2023/10/29 14:31:53;;;;;;;8.47;5.77;;;;;;;;;;5091645;28;20051;-67
2023/10/29 14:34:19;;;;;;;10.20;5.93;;;;;;;;;;5090607;28;20032;-67
2023/10/29 14:36:45;;;;;;;8.07;5.47;;;;;;;;;;5091343;28;20097;-67
2023/10/29 14:39:13;;;;;;;7.70;5.10;;;;;;;;;;5091514;28;20180;-67
2023/10/29 14:41:38;;;;;;;9.97;5.60;;;;;;;;;;5074077;28;20521;-69